»·PEaware :: N3891R KSNA-KSBD

N3891R :: KSNA-KSBD

FLIGHT INFORMATION

Flight Status: Arrived
Operator: Privately registered:
United States
More flights under this callsign
Pilot: Markus B. (22479)
Aircraft: CESSNA 172 SKYHAWK
(C172)
More flights by this aircraft type
Origin: KSNA John Wayne-Orange Co
United States
Destination: KSBD San Bernardino Intl
United States
More flights between these airports :: More routes between these airports
Route: SLI V8 PDZ
File this flight plan on PilotEdge
Remarks:
Altitude:
(Current/Filed)
5,000ft
Speed:
(Current/Filed)
120kts
Departed: 06-Jan-19 01:51 PM
Arrived: 06-Jan-19 02:26 PM
Distance/Time
Traveled:
40nm/0:35
Distance/Time
To Go:
Arrived

Flight Plot

Page will automatically refresh every two minutes.


Map Options




Map Legend


Flown Route
Filed Route
Departure Airport
Arrival Airport
Navaid (VOR, NDB)
Fix

Horizontal Profiles

Position Reports

Time Latitude Longitude Heading Altitude Ground
Speed
06-Jan-19 13:25 33.675415 -117.871383 203 60ft 0kts
06-Jan-19 13:26 33.675415 -117.871383 203 60ft 0kts
06-Jan-19 13:27 33.675415 -117.871383 203 60ft 0kts
06-Jan-19 13:28 33.675415 -117.871383 203 60ft 0kts
06-Jan-19 13:29 33.675415 -117.871383 203 60ft 0kts
06-Jan-19 13:30 33.675415 -117.871383 203 60ft 0kts
06-Jan-19 13:31 33.675415 -117.871383 203 60ft 0kts
06-Jan-19 13:32 33.675415 -117.871383 203 60ft 0kts
06-Jan-19 13:33 33.675415 -117.871383 203 60ft 0kts
06-Jan-19 13:34 33.675415 -117.871383 203 60ft 0kts
06-Jan-19 13:35 33.675415 -117.871383 203 60ft 0kts
06-Jan-19 13:36 33.675415 -117.871383 203 60ft 0kts
06-Jan-19 13:37 33.675415 -117.871383 203 60ft 0kts
06-Jan-19 13:38 33.675415 -117.871383 203 60ft 0kts
06-Jan-19 13:39 33.675415 -117.871383 203 60ft 0kts
06-Jan-19 13:40 33.675415 -117.871383 203 60ft 0kts
06-Jan-19 13:41 33.675415 -117.871383 203 60ft 0kts
06-Jan-19 13:42 33.675415 -117.871383 203 60ft 0kts
06-Jan-19 13:43 33.675415 -117.871383 203 60ft 0kts
06-Jan-19 13:44 33.675415 -117.871383 203 60ft 0kts
06-Jan-19 13:45 33.674932 -117.871015 126 60ft 8kts
06-Jan-19 13:46 33.677841 -117.868901 30 60ft 0kts
06-Jan-19 13:47 33.681184 -117.867026 42 60ft 18kts
06-Jan-19 13:48 33.681180 -117.866673 92 60ft 0kts
06-Jan-19 13:49 33.680305 -117.865962 203 60ft 33kts
06-Jan-19 13:50 33.662137 -117.881167 227 684ft 97kts
06-Jan-19 13:51 33.645009 -117.907612 231 1523ft 99kts
06-Jan-19 13:52 33.627203 -117.934185 230 2232ft 106kts
06-Jan-19 13:53 33.609852 -117.959858 230 3141ft 93kts
06-Jan-19 13:54 33.599872 -117.984778 301 4040ft 89kts
06-Jan-19 13:55 33.620481 -118.001121 331 4837ft 90kts
06-Jan-19 13:56 33.646468 -118.017776 332 4953ft 115kts
06-Jan-19 13:57 33.675294 -118.036197 332 4954ft 118kts
06-Jan-19 13:58 33.704977 -118.052731 3 4844ft 127kts
06-Jan-19 13:59 33.738533 -118.052026 354 4902ft 111kts
06-Jan-19 14:00 33.770011 -118.055123 355 4955ft 117kts
06-Jan-19 14:01 33.789973 -118.029051 68 4945ft 118kts
06-Jan-19 14:02 33.797812 -117.990781 71 4944ft 118kts
06-Jan-19 14:03 33.808278 -117.953110 72 4944ft 118kts
06-Jan-19 14:04 33.818258 -117.915416 72 4944ft 118kts
06-Jan-19 14:05 33.828078 -117.877714 72 4944ft 118kts
06-Jan-19 14:06 33.837905 -117.839788 72 4944ft 118kts
06-Jan-19 14:07 33.847660 -117.802042 72 4944ft 118kts
06-Jan-19 14:08 33.857448 -117.764107 72 4944ft 118kts
06-Jan-19 14:09 33.867487 -117.726366 72 4944ft 119kts
06-Jan-19 14:10 33.877388 -117.688389 72 4944ft 119kts
06-Jan-19 14:11 33.887110 -117.650543 72 4944ft 119kts
06-Jan-19 14:12 33.896859 -117.612490 72 4944ft 118kts
06-Jan-19 14:13 33.906550 -117.574595 72 4944ft 118kts
06-Jan-19 14:14 33.916222 -117.536737 72 4944ft 118kts
06-Jan-19 14:15 33.937158 -117.507467 33 4930ft 119kts
06-Jan-19 14:16 33.964819 -117.485667 32 4919ft 120kts
06-Jan-19 14:17 33.994850 -117.462046 33 4027ft 126kts
06-Jan-19 14:18 34.023761 -117.439320 32 3107ft 121kts
06-Jan-19 14:19 34.049495 -117.417494 31 2964ft 102kts
06-Jan-19 14:20 34.051360 -117.389546 75 2730ft 106kts
06-Jan-19 14:21 34.059893 -117.354189 70 2900ft 108kts
06-Jan-19 14:22 34.069783 -117.320891 70 2626ft 105kts
06-Jan-19 14:23 34.081178 -117.282707 70 1268ft 131kts
06-Jan-19 14:24 34.090256 -117.251650 71 1228ft 71kts
06-Jan-19 14:25 34.093800 -117.241362 37 1161ft 11kts
06-Jan-19 14:26 34.094822 -117.240448 34 1161ft 5kts

Navigation Log

Ident Type
Flight plan parsing failed, navigation log unavailable